WetterOnline ( http://www.wetteronline.de )

Wetter aktuell Bremerhaven

Aktuelles Wetter: Bremerhaven (11m)

6-stündlich | Neueste Meldungen
Ortszeit Temperatur Wetter
Fr, 20.04. 2:00 17.8° C leicht bewölkt
Do, 19.04. 20:00 25.6° C wolkenlos
Do, 19.04. 14:00 25.3° C wolkenlos
Do, 19.04. 8:00 14.1° C fast wolkenlos
Do, 19.04. 2:00 15.4° C fast wolkenlos
Mi, 18.04. 20:00 20.8° C wolkenlos
Mi, 18.04. 14:00 21.3° C wolkenlos
Mi, 18.04. 8:00 11.6° C fast wolkenlos
Ortszeit Temperatur Wetter
Fr, 20.04. 3:00 17.3° C fast wolkenlos
Fr, 20.04. 2:50 17.3° C fast wolkenlos
Fr, 20.04. 2:40 17.4° C wolkenlos
Fr, 20.04. 2:30 17.7° C wolkenlos
Fr, 20.04. 2:20 17.7° C wolkenlos
Fr, 20.04. 2:10 17.6° C fast wolkenlos
Fr, 20.04. 2:00 17.8° C leicht bewölkt
Fr, 20.04. 1:30 18.5° C leicht bewölkt
Fr, 20.04. 1:00 18.8° C leicht bewölkt
Fr, 20.04. 0:30 19.2° C fast wolkenlos
Fr, 20.04. 0:00 19.7° C wolkenlos
Ortszeit Relative Feuchte Sichtweite
Fr, 20.04. 2:00 64% 10 km
Do, 19.04. 20:00 35% 10 km
Do, 19.04. 14:00 34% 10 km
Do, 19.04. 8:00 77% 10 km
Do, 19.04. 2:00 71% 10 km
Mi, 18.04. 20:00 47% 10 km
Mi, 18.04. 14:00 48% 10 km
Mi, 18.04. 8:00 77% 10 km
Ortszeit Relative Feuchte Sichtweite
Fr, 20.04. 3:00 65% 10 km
Fr, 20.04. 2:50 65% -
Fr, 20.04. 2:40 65% -
Fr, 20.04. 2:30 64% 10 km
Fr, 20.04. 2:20 64% -
Fr, 20.04. 2:10 64% -
Fr, 20.04. 2:00 64% 10 km
Fr, 20.04. 1:30 61% 10 km
Fr, 20.04. 1:00 61% 10 km
Fr, 20.04. 0:30 59% 10 km
Fr, 20.04. 0:00 57% 10 km
Ortszeit Niederschlagsmenge Niederschlagsart
Fr, 20.04. 2:00 0.0 l/m2 in 6 Std. -
Do, 19.04. 20:00 0.0 l/m2 in 12 Std. -
Do, 19.04. 14:00 0.0 l/m2 in 6 Std. -
Do, 19.04. 8:00 0.0 l/m2 in 12 Std. -
Do, 19.04. 2:00 0.0 l/m2 in 6 Std. -
Mi, 18.04. 20:00 0.0 l/m2 in 12 Std. -
Mi, 18.04. 14:00 0.0 l/m2 in 6 Std. -
Mi, 18.04. 8:00 0.0 l/m2 in 12 Std. -
Ortszeit Niederschlagsmenge Niederschlagsart
Fr, 20.04. 3:00 0.0 l/m2 in 1 Std. -
Fr, 20.04. 2:50 keine Meldung -
Fr, 20.04. 2:40 keine Meldung -
Fr, 20.04. 2:30 0.0 l/m2 in 1 Std. -
Fr, 20.04. 2:20 keine Meldung -
Fr, 20.04. 2:10 keine Meldung -
Fr, 20.04. 2:00 0.0 l/m2 in 1 Std. -
Fr, 20.04. 1:30 0.0 l/m2 in 1 Std. -
Fr, 20.04. 1:00 0.0 l/m2 in 1 Std. -
Fr, 20.04. 0:30 0.0 l/m2 in 1 Std. -
Fr, 20.04. 0:00 0.0 l/m2 in 1 Std. -
Ortszeit Stärke Spitze Richtung
km/h Bft. km/h Grad Sektor
Fr, 20.04. 2:00 13 3 28 130° SO
Do, 19.04. 20:00 9 2 28 120° SO
Do, 19.04. 14:00 15 3 26 150° SO
Do, 19.04. 8:00 13 3 24 100° O
Do, 19.04. 2:00 13 3 20 80° O
Mi, 18.04. 20:00 2 1 15 250° W
Mi, 18.04. 14:00 7 2 11 210° SW
Mi, 18.04. 8:00 7 2 18 180° S
Ortszeit Stärke Spitze Richtung
km/h Bft. km/h Grad Sektor
Fr, 20.04. 3:00 18 3 22 120° SO
Fr, 20.04. 2:50 18 3 - 120° SO
Fr, 20.04. 2:40 14 3 - 120° SO
Fr, 20.04. 2:30 14 3 22 120° SO
Fr, 20.04. 2:20 14 3 - 120° SO
Fr, 20.04. 2:10 15 3 - 120° SO
Fr, 20.04. 2:00 13 3 20 130° SO
Fr, 20.04. 1:30 11 2 20 130° SO
Fr, 20.04. 1:00 17 3 24 120° SO
Fr, 20.04. 0:30 17 3 24 120° SO
Fr, 20.04. 0:00 14 3 29 130° SO
Ortszeit Untergrenze Bedeckung Gattung
total tief tief mittel hoch
Fr, 20.04. 2:00 10500 m 3/8 0/8 - - -
Do, 19.04. 20:00 - 0/8 0/8 - - -
Do, 19.04. 14:00 - 0/8 0/8 - - -
Do, 19.04. 8:00 10500 m 1/8 0/8 - - -
Do, 19.04. 2:00 10500 m 1/8 0/8 - - -
Mi, 18.04. 20:00 - 0/8 0/8 - - -
Mi, 18.04. 14:00 5100 m 0/8 0/8 - - -
Mi, 18.04. 8:00 10500 m 2/8 0/8 - - -
Ortszeit Bedeckungsgrad in Achtel und Wolkenuntergrenze
Fr, 20.04. 3:00 2(10500m)
Fr, 20.04. 2:50 2(10500m)
Fr, 20.04. 2:40 keine Wolken
Fr, 20.04. 2:30 keine Wolken
Fr, 20.04. 2:20 keine Wolken
Fr, 20.04. 2:10 1(10500m)
Fr, 20.04. 2:00 3(10500m)
Fr, 20.04. 1:30 3(10500m)
Fr, 20.04. 1:00 1(5700m)
Fr, 20.04. 0:30 1(12000m) 2(10500m)
Fr, 20.04. 0:00 2(12000m)
Ortszeit Luftdruck NN (hPa) Tendenz (hPa in 3 Std.)
Fr, 20.04. 2:00 1026 - 1,0
Do, 19.04. 20:00 1027 - 1,2
Do, 19.04. 14:00 1029 - 1,0
Do, 19.04. 8:00 1030 - 0,3
Do, 19.04. 2:00 1031 - 0,3
Mi, 18.04. 20:00 1031 - 0,5
Mi, 18.04. 14:00 1032 + 0,2
Mi, 18.04. 8:00 1031 + 1,6
Ortszeit Luftdruck NN (hPa) Tendenz (hPa in 3 Std.)
Fr, 20.04. 3:00 1025 - 1,3
Fr, 20.04. 2:50 1025 keine Meldung
Fr, 20.04. 2:40 1025 keine Meldung
Fr, 20.04. 2:30 1025 - 1,0
Fr, 20.04. 2:20 1025 keine Meldung
Fr, 20.04. 2:10 1025 keine Meldung
Fr, 20.04. 2:00 1026 - 1,0
Fr, 20.04. 1:30 1026 - 0,8
Fr, 20.04. 1:00 1026 - 0,9
Fr, 20.04. 0:30 1026 - 0,5
Fr, 20.04. 0:00 1026 - 0,3
Ortszeit Schneehöhe (cm)
Fr, 20.04. 2:00 0
Do, 19.04. 20:00 0
Do, 19.04. 14:00 0
Do, 19.04. 8:00 0
Do, 19.04. 2:00 0
Mi, 18.04. 20:00 0
Mi, 18.04. 14:00 0
Mi, 18.04. 8:00 0
Ortszeit Schneehöhe (cm)
Fr, 20.04. 3:00 0
Fr, 20.04. 2:50 0
Fr, 20.04. 2:40 0
Fr, 20.04. 2:30 0
Fr, 20.04. 2:20 0
Fr, 20.04. 2:10 0
Fr, 20.04. 2:00 0
Fr, 20.04. 1:30 0
Fr, 20.04. 1:00 0
Fr, 20.04. 0:30 0
Fr, 20.04. 0:00 0
Link zu dieser Seite / Seite empfehlen

Das Wetter in ...